createdAt,value
2023-03-17T00:00:41.627Z,99578.77
2023-03-17T00:03:16.784Z,99583.97
2023-03-17T00:05:44.934Z,99590.46
2023-03-17T00:08:35.015Z,99587.57
2023-03-17T00:11:03.498Z,99589.06
2023-03-17T00:13:32.291Z,99592.01
2023-03-17T00:16:02.662Z,99591.67
2023-03-17T00:18:35.425Z,99594.61
2023-03-17T00:21:05.936Z,99596.10
2023-03-17T00:23:35.372Z,99592.57
2023-03-17T00:26:03.624Z,99591.64
2023-03-17T00:28:34.973Z,99585.29
2023-03-17T00:31:11.527Z,99584.25
2023-03-17T00:33:40.684Z,99586.46
2023-03-17T00:36:30.948Z,99585.64
2023-03-17T00:38:59.887Z,99585.89
2023-03-17T00:41:29.709Z,99585.60
2023-03-17T00:43:58.745Z,99583.93
2023-03-17T00:46:35.716Z,99584.15
2023-03-17T00:49:20.678Z,99585.93
2023-03-17T00:51:49.883Z,99587.98
2023-03-17T00:54:19.701Z,99591.40
2023-03-17T00:56:48.893Z,99593.06
2023-03-17T00:59:26.472Z,99585.64
2023-03-17T01:01:55.424Z,99594.07
2023-03-17T01:04:24.187Z,99598.28
2023-03-17T01:06:53.185Z,99603.41
2023-03-17T01:09:24.343Z,99606.83
2023-03-17T01:11:53.325Z,99607.05
2023-03-17T01:14:21.902Z,99614.13
2023-03-17T01:16:50.689Z,99617.18
2023-03-17T01:19:22.500Z,99623.58
2023-03-17T01:21:50.888Z,99630.61
2023-03-17T01:24:19.728Z,99631.45
2023-03-17T01:26:48.292Z,99631.99
2023-03-17T01:29:17.728Z,99631.17
2023-03-17T01:31:47.814Z,99628.38
2023-03-17T01:34:16.694Z,99629.91
2023-03-17T01:36:45.037Z,99634.91
2023-03-17T01:39:13.081Z,99639.24
2023-03-17T01:42:01.650Z,99644.58
2023-03-17T01:44:30.978Z,99647.77
2023-03-17T01:47:01.217Z,99647.22
2023-03-17T01:49:37.615Z,99649.86
2023-03-17T01:52:14.373Z,99648.21
2023-03-17T01:54:48.367Z,99649.23
2023-03-17T01:57:21.471Z,99654.20
2023-03-17T01:59:52.373Z,99664.31
2023-03-17T02:02:31.055Z,99665.16
2023-03-17T02:04:59.593Z,99669.68
2023-03-17T02:07:28.253Z,99672.26
2023-03-17T02:09:57.181Z,99677.40
2023-03-17T02:12:26.044Z,99681.08
2023-03-17T02:14:54.838Z,99683.09
2023-03-17T02:17:26.606Z,99681.73
2023-03-17T02:19:55.709Z,99681.88
2023-03-17T02:22:24.796Z,99682.45
2023-03-17T02:24:57.295Z,99683.23
2023-03-17T02:27:34.993Z,99684.04
2023-03-17T02:30:04.529Z,99682.93
2023-03-17T02:32:35.577Z,99686.67
2023-03-17T02:35:05.052Z,99683.77
2023-03-17T02:37:33.517Z,99684.16
2023-03-17T02:40:02.847Z,99686.38
2023-03-17T02:42:35.936Z,99686.02
2023-03-17T02:45:05.170Z,99689.95
2023-03-17T02:47:33.604Z,99693.20
2023-03-17T02:50:02.089Z,99692.64
2023-03-17T02:52:31.291Z,99694.02
2023-03-17T02:54:59.887Z,99696.73
2023-03-17T02:57:28.168Z,99699.19
2023-03-17T02:59:56.669Z,99698.94
2023-03-17T03:02:24.874Z,99698.60
2023-03-17T03:04:53.289Z,99699.36
2023-03-17T03:07:22.977Z,99700.50
2023-03-17T03:09:51.526Z,99700.45
2023-03-17T03:12:19.690Z,99699.83
2023-03-17T03:14:48.084Z,99699.88
2023-03-17T03:17:16.568Z,99701.70
2023-03-17T03:19:47.433Z,99703.42
2023-03-17T03:22:15.996Z,99707.34
2023-03-17T03:24:44.164Z,99710.48
2023-03-17T03:27:12.312Z,99713.47
2023-03-17T03:29:41.958Z,99712.41
2023-03-17T03:32:16.482Z,99717.80
2023-03-17T03:34:45.479Z,99717.95
2023-03-17T03:37:13.667Z,99724.83
2023-03-17T03:39:42.569Z,99726.20
2023-03-17T03:42:10.827Z,99729.22
2023-03-17T03:44:41.355Z,99733.40
2023-03-17T03:47:09.949Z,99736.48
2023-03-17T03:49:39.291Z,99742.37
2023-03-17T03:52:07.961Z,99743.16
2023-03-17T03:54:36.326Z,99746.91
2023-03-17T03:57:04.918Z,99742.51
2023-03-17T03:59:34.327Z,99751.48
2023-03-17T04:02:03.317Z,99751.87
2023-03-17T04:04:31.961Z,99753.70
2023-03-17T04:07:00.288Z,99756.77
2023-03-17T04:09:28.544Z,99757.36
2023-03-17T04:11:56.919Z,99760.55
2023-03-17T04:14:30.962Z,99759.85
2023-03-17T04:17:01.732Z,99766.94
2023-03-17T04:19:30.078Z,99766.27
2023-03-17T04:22:05.510Z,99769.94
2023-03-17T04:24:35.143Z,99766.41
2023-03-17T04:27:05.881Z,99769.39
2023-03-17T04:29:36.407Z,99772.45
2023-03-17T04:32:05.916Z,99774.55
2023-03-17T04:34:34.402Z,99776.15
2023-03-17T04:37:02.686Z,99779.66
2023-03-17T04:39:33.725Z,99781.20
2023-03-17T04:42:01.899Z,99781.32
2023-03-17T04:44:30.374Z,99784.02
2023-03-17T04:46:59.500Z,99787.52
2023-03-17T04:49:28.318Z,99786.27
2023-03-17T04:51:56.667Z,99793.23
2023-03-17T04:54:25.460Z,99792.41
2023-03-17T04:56:53.655Z,99791.21
2023-03-17T04:59:21.971Z,99788.95
2023-03-17T05:01:51.003Z,99790.27
2023-03-17T05:04:30.741Z,99794.48
2023-03-17T05:07:00.883Z,99791.02
2023-03-17T05:09:29.431Z,99786.14
2023-03-17T05:11:58.928Z,99782.73
2023-03-17T05:14:27.776Z,99787.05
2023-03-17T05:16:56.291Z,99786.66
2023-03-17T05:19:24.592Z,99789.41
2023-03-17T05:21:53.128Z,99790.44
2023-03-17T05:24:21.410Z,99792.72
2023-03-17T05:26:49.687Z,99798.00
2023-03-17T05:29:18.144Z,99795.02
2023-03-17T05:31:46.336Z,99795.63
2023-03-17T05:34:15.488Z,99799.79
2023-03-17T05:36:44.796Z,99803.84
2023-03-17T05:39:14.747Z,99809.39
2023-03-17T05:41:43.163Z,99810.79
2023-03-17T05:44:14.820Z,99813.11
2023-03-17T05:46:43.188Z,99820.17
2023-03-17T05:49:14.049Z,99821.85
2023-03-17T05:51:42.834Z,99824.05
2023-03-17T05:54:11.118Z,99827.23
2023-03-17T05:56:42.899Z,99820.84
2023-03-17T05:59:15.047Z,99819.57
2023-03-17T06:01:43.230Z,99818.59
2023-03-17T06:04:12.078Z,99819.15
2023-03-17T06:06:40.405Z,99824.02
2023-03-17T06:09:09.535Z,99829.97
2023-03-17T06:11:38.333Z,99831.74
2023-03-17T06:14:07.416Z,99825.28
2023-03-17T06:16:55.604Z,99827.58
2023-03-17T06:19:23.710Z,99825.75
2023-03-17T06:21:54.186Z,99821.31
2023-03-17T06:24:22.522Z,99825.73
2023-03-17T06:26:54.799Z,99825.39
2023-03-17T06:29:23.286Z,99832.64
2023-03-17T06:31:51.532Z,99833.47
2023-03-17T06:34:23.323Z,99836.65
2023-03-17T06:36:51.910Z,99836.19
2023-03-17T06:39:21.222Z,99840.46
2023-03-17T06:41:51.200Z,99845.41
2023-03-17T06:44:19.658Z,99846.38
2023-03-17T06:46:49.273Z,99853.30
2023-03-17T06:49:17.829Z,99853.69
2023-03-17T06:51:47.088Z,99856.92
2023-03-17T06:54:15.410Z,99860.02
2023-03-17T06:56:45.025Z,99859.39
2023-03-17T06:59:14.234Z,99862.28
2023-03-17T07:01:42.534Z,99861.81
2023-03-17T07:04:12.518Z,99865.52
2023-03-17T07:06:45.210Z,99863.07
2023-03-17T07:09:13.510Z,99864.09
2023-03-17T07:11:46.072Z,99863.66
2023-03-17T07:14:15.578Z,99860.55
2023-03-17T07:16:45.344Z,99863.06
2023-03-17T07:19:16.887Z,99860.20
2023-03-17T07:21:46.947Z,99860.16
2023-03-17T07:24:17.718Z,99860.36
2023-03-17T07:26:46.345Z,99863.18
2023-03-17T07:29:21.046Z,99865.14
2023-03-17T07:31:49.987Z,99873.28
2023-03-17T07:34:18.712Z,99879.83
2023-03-17T07:36:48.245Z,99882.10
2023-03-17T07:39:17.722Z,99881.83
2023-03-17T07:41:48.399Z,99883.39
2023-03-17T07:44:17.634Z,99886.60
2023-03-17T07:46:46.538Z,99889.52
2023-03-17T07:49:20.991Z,99889.05
2023-03-17T07:51:56.132Z,99887.65
2023-03-17T07:54:26.987Z,99890.05
2023-03-17T07:56:56.426Z,99886.63
2023-03-17T07:59:25.021Z,99889.83
2023-03-17T08:01:58.218Z,99891.48
2023-03-17T08:04:27.802Z,99893.89
2023-03-17T08:06:57.345Z,99898.80
2023-03-17T08:09:25.779Z,99901.36
2023-03-17T08:11:54.372Z,99901.55
2023-03-17T08:14:22.779Z,99901.86
2023-03-17T08:16:53.160Z,99905.86
2023-03-17T08:19:22.748Z,99908.40
2023-03-17T08:21:56.659Z,99911.86
2023-03-17T08:24:26.553Z,99915.73
2023-03-17T08:26:54.811Z,99916.13
2023-03-17T08:29:25.515Z,99913.70
2023-03-17T08:31:54.061Z,99914.21
2023-03-17T08:34:24.132Z,99913.81
2023-03-17T08:36:52.667Z,99917.61
2023-03-17T08:39:20.865Z,99914.41
2023-03-17T08:41:49.234Z,99909.52
2023-03-17T08:44:17.477Z,99905.18
2023-03-17T08:46:46.220Z,99900.73
2023-03-17T08:49:17.132Z,99899.88
2023-03-17T08:51:45.448Z,99909.84
2023-03-17T08:54:16.275Z,99914.24
2023-03-17T08:56:45.719Z,99916.21
2023-03-17T08:59:16.494Z,99921.52
2023-03-17T09:01:47.394Z,99919.66
2023-03-17T09:04:17.077Z,99922.77
2023-03-17T09:07:01.858Z,99925.73
2023-03-17T09:09:35.349Z,99933.73
2023-03-17T09:12:06.339Z,99936.46
2023-03-17T09:14:43.479Z,99940.40
2023-03-17T09:17:14.076Z,99945.95
2023-03-17T09:19:43.609Z,99945.50
2023-03-17T09:22:23.319Z,99951.29
2023-03-17T09:24:56.514Z,99948.91
2023-03-17T09:27:31.273Z,99952.53
2023-03-17T09:29:59.442Z,99953.33
2023-03-17T09:32:27.707Z,99955.83
2023-03-17T09:34:57.755Z,99961.38
2023-03-17T09:37:26.333Z,99968.38
2023-03-17T09:39:54.690Z,99968.21
2023-03-17T09:42:58.281Z,99974.61
2023-03-17T09:45:38.938Z,99972.94
2023-03-17T09:49:04.745Z,99970.21
2023-03-17T09:51:34.447Z,99974.63
2023-03-17T09:54:04.280Z,99968.13
2023-03-17T09:56:34.321Z,99966.77
2023-03-17T09:59:27.165Z,99965.38
2023-03-17T10:01:55.332Z,99964.23
2023-03-17T10:04:24.227Z,99964.77
2023-03-17T10:06:52.786Z,99962.91
2023-03-17T10:09:27.324Z,99964.25
2023-03-17T10:12:09.984Z,99968.54
2023-03-17T10:14:43.207Z,99962.33
2023-03-17T10:17:23.312Z,99964.78
2023-03-17T10:20:18.910Z,99970.90
2023-03-17T10:22:50.538Z,99975.72
2023-03-17T10:25:23.460Z,99975.58
2023-03-17T10:27:56.007Z,99974.80
2023-03-17T10:30:24.544Z,99976.39
2023-03-17T10:32:52.998Z,99977.66
2023-03-17T10:35:23.248Z,99974.36
2023-03-17T10:37:58.917Z,99975.98
2023-03-17T10:40:36.288Z,99981.48
2023-03-17T10:43:08.209Z,99991.64
2023-03-17T10:45:47.992Z,99993.87
2023-03-17T10:48:19.016Z,99994.70
2023-03-17T10:50:49.864Z,99993.29
2023-03-17T10:53:29.893Z,99993.88
2023-03-17T10:56:25.258Z,99993.70
2023-03-17T10:58:55.129Z,99998.39
2023-03-17T11:01:29.517Z,99998.96
2023-03-17T11:04:04.155Z,100001.91
2023-03-17T11:06:39.580Z,100001.00
2023-03-17T11:09:12.665Z,100000.52
2023-03-17T11:11:59.610Z,100001.61
2023-03-17T11:14:29.741Z,99999.41
2023-03-17T11:17:13.272Z,100003.06
2023-03-17T11:19:52.283Z,100001.91
2023-03-17T11:22:26.159Z,100005.50
2023-03-17T11:25:06.471Z,100002.84
2023-03-17T11:27:49.977Z,100002.61
2023-03-17T11:30:53.051Z,100004.38
2023-03-17T11:33:33.951Z,100001.39
2023-03-17T11:36:10.757Z,100006.39
2023-03-17T11:39:06.608Z,100009.61
2023-03-17T11:41:56.073Z,100008.39
2023-03-17T11:44:55.533Z,100011.30
2023-03-17T11:47:43.029Z,100018.97
2023-03-17T11:50:20.214Z,100025.31
2023-03-17T11:53:20.735Z,100025.58
2023-03-17T11:55:51.867Z,100023.80
2023-03-17T11:58:56.538Z,100023.20
2023-03-17T12:01:29.634Z,100026.16
2023-03-17T12:04:20.618Z,100030.15
2023-03-17T12:06:50.967Z,100034.05
2023-03-17T12:09:30.919Z,100036.88
2023-03-17T12:11:59.748Z,100042.76
2023-03-17T12:14:30.689Z,100048.48
2023-03-17T12:17:06.217Z,100044.73
2023-03-17T12:19:38.202Z,100044.17
2023-03-17T12:22:28.498Z,100045.89
2023-03-17T12:25:18.201Z,100051.02
2023-03-17T12:27:58.760Z,100052.77
2023-03-17T12:30:45.853Z,100050.36
2023-03-17T12:33:14.155Z,100054.59
2023-03-17T12:35:43.316Z,100053.05
2023-03-17T12:38:12.912Z,100060.39
2023-03-17T12:41:24.912Z,100061.01
2023-03-17T12:44:15.940Z,100067.40
2023-03-17T12:46:54.458Z,100068.23
2023-03-17T12:49:45.297Z,100070.49
2023-03-17T12:52:41.253Z,100071.88
2023-03-17T12:55:13.666Z,100075.24
2023-03-17T12:57:43.982Z,100073.32
2023-03-17T13:00:20.740Z,100070.44
2023-03-17T13:02:50.881Z,100069.30
2023-03-17T13:05:29.115Z,100068.10
2023-03-17T13:08:04.827Z,100063.70
2023-03-17T13:10:40.987Z,100064.48
2023-03-17T13:13:14.718Z,100063.67
2023-03-17T13:15:45.180Z,100071.01
2023-03-17T13:18:16.603Z,100071.14
2023-03-17T13:20:56.805Z,100072.14
2023-03-17T13:23:34.927Z,100074.84
2023-03-17T13:26:04.575Z,100069.86
2023-03-17T13:28:37.047Z,100067.75
2023-03-17T13:31:27.812Z,100068.44
2023-03-17T13:34:18.093Z,100073.27
2023-03-17T13:37:05.578Z,100067.25
2023-03-17T13:39:56.610Z,100062.90
2023-03-17T13:43:11.760Z,100059.24
2023-03-17T13:45:41.783Z,100061.05
2023-03-17T13:48:37.602Z,100061.41
2023-03-17T13:51:14.467Z,100069.71
2023-03-17T13:53:51.052Z,100077.83
2023-03-17T13:56:28.127Z,100085.02
2023-03-17T13:59:02.337Z,100091.20
2023-03-17T14:01:37.720Z,100096.59
2023-03-17T14:04:08.840Z,100100.69
2023-03-17T14:06:38.987Z,100105.69
2023-03-17T14:09:17.361Z,100116.13
2023-03-17T14:11:48.525Z,100118.13
2023-03-17T14:14:32.180Z,100121.42
2023-03-17T14:17:19.011Z,100123.00
2023-03-17T14:20:08.696Z,100126.56
2023-03-17T14:22:43.868Z,100134.97
2023-03-17T14:25:18.371Z,100135.55
2023-03-17T14:27:49.253Z,100142.47
2023-03-17T14:30:22.485Z,100142.10
2023-03-17T14:33:02.197Z,100139.85
2023-03-17T14:35:35.366Z,100143.17
2023-03-17T14:38:22.497Z,100144.67
2023-03-17T14:40:51.390Z,100151.88
2023-03-17T14:43:19.797Z,100147.02
2023-03-17T14:45:52.634Z,100147.85
2023-03-17T14:48:26.608Z,100152.48
2023-03-17T14:51:05.412Z,100154.59
2023-03-17T14:53:35.719Z,100156.58
2023-03-17T14:56:04.520Z,100162.47
2023-03-17T14:58:41.658Z,100164.09
2023-03-17T15:01:42.220Z,100163.67
2023-03-17T15:04:29.982Z,100169.80
2023-03-17T15:07:00.049Z,100176.49
2023-03-17T15:09:28.704Z,100180.48
2023-03-17T15:12:01.388Z,100181.64
2023-03-17T15:14:34.696Z,100180.63
2023-03-17T15:17:07.799Z,100177.35
2023-03-17T15:19:44.340Z,100179.69
2023-03-17T15:22:31.189Z,100185.77
2023-03-17T15:25:00.403Z,100184.65
2023-03-17T15:27:30.000Z,100182.52
2023-03-17T15:29:58.753Z,100181.91
2023-03-17T15:32:27.119Z,100182.14
2023-03-17T15:34:57.181Z,100176.67
2023-03-17T15:37:29.399Z,100176.66
2023-03-17T15:39:58.121Z,100179.50
2023-03-17T15:42:31.791Z,100180.40
2023-03-17T15:45:01.377Z,100185.02
2023-03-17T15:47:31.562Z,100188.41
2023-03-17T15:50:02.200Z,100195.08
2023-03-17T15:52:30.578Z,100203.30
2023-03-17T15:54:59.467Z,100210.16
2023-03-17T15:57:29.829Z,100212.27
2023-03-17T16:00:02.527Z,100215.83
2023-03-17T16:02:40.891Z,100223.63
2023-03-17T16:05:19.715Z,100229.65
2023-03-17T16:07:48.204Z,100227.05
2023-03-17T16:10:24.514Z,100224.46
2023-03-17T16:12:52.845Z,100226.91
2023-03-17T16:15:23.912Z,100232.42
2023-03-17T16:17:54.483Z,100233.11
2023-03-17T16:20:27.138Z,100237.51
2023-03-17T16:22:57.214Z,100238.81
2023-03-17T16:25:30.025Z,100244.93
2023-03-17T16:28:00.099Z,100249.48
2023-03-17T16:30:31.186Z,100255.19
2023-03-17T16:33:02.370Z,100260.85
2023-03-17T16:35:33.810Z,100263.00
2023-03-17T16:38:02.041Z,100265.49
2023-03-17T16:40:36.377Z,100271.66
2023-03-17T16:43:12.960Z,100279.25
2023-03-17T16:45:43.966Z,100284.96
2023-03-17T16:48:18.922Z,100289.89
2023-03-17T16:50:48.579Z,100294.28
2023-03-17T16:53:17.733Z,100299.85
2023-03-17T16:55:46.017Z,100303.43
2023-03-17T16:58:19.313Z,100309.50
2023-03-17T17:00:48.211Z,100310.27
2023-03-17T17:03:16.597Z,100310.48
2023-03-17T17:05:48.036Z,100308.65
2023-03-17T17:08:16.370Z,100316.39
2023-03-17T17:10:44.710Z,100325.04
2023-03-17T17:13:16.372Z,100326.17
2023-03-17T17:15:44.869Z,100324.48
2023-03-17T17:18:18.446Z,100329.02
2023-03-17T17:20:49.195Z,100331.98
2023-03-17T17:23:23.675Z,100332.91
2023-03-17T17:25:52.511Z,100331.71
2023-03-17T17:28:22.575Z,100335.20
2023-03-17T17:30:51.533Z,100335.73
2023-03-17T17:33:26.459Z,100335.64
2023-03-17T17:35:54.683Z,100338.29
2023-03-17T17:38:27.647Z,100336.12
2023-03-17T17:40:58.501Z,100336.80
2023-03-17T17:43:27.600Z,100343.33
2023-03-17T17:45:55.848Z,100342.82
2023-03-17T17:48:25.768Z,100342.06
2023-03-17T17:50:54.927Z,100337.74
2023-03-17T17:53:24.484Z,100337.19
2023-03-17T17:55:52.750Z,100335.02
2023-03-17T17:58:25.441Z,100331.35
2023-03-17T18:00:55.514Z,100329.52
2023-03-17T18:03:26.403Z,100328.30
2023-03-17T18:05:55.403Z,100333.75
2023-03-17T18:08:24.392Z,100338.83
2023-03-17T18:11:00.000Z,100341.75
2023-03-17T18:13:28.527Z,100337.68
2023-03-17T18:15:57.831Z,100342.61
2023-03-17T18:18:27.696Z,100346.55
2023-03-17T18:20:55.988Z,100344.17
2023-03-17T18:23:24.315Z,100341.79
2023-03-17T18:25:59.906Z,100346.30
2023-03-17T18:28:28.651Z,100345.05
2023-03-17T18:31:09.671Z,100339.04
2023-03-17T18:33:40.647Z,100342.06
2023-03-17T18:36:09.330Z,100342.65
2023-03-17T18:38:38.356Z,100341.19
2023-03-17T18:41:07.036Z,100347.15
2023-03-17T18:43:38.918Z,100347.56
2023-03-17T18:46:07.780Z,100349.58
2023-03-17T18:48:36.442Z,100348.24
2023-03-17T18:51:07.048Z,100348.98
2023-03-17T18:53:35.713Z,100349.34
2023-03-17T18:56:06.694Z,100348.73
2023-03-17T18:58:36.482Z,100353.86
2023-03-17T19:01:05.035Z,100352.66
2023-03-17T19:03:35.562Z,100352.38
2023-03-17T19:06:11.328Z,100355.24
2023-03-17T19:08:39.964Z,100355.15
2023-03-17T19:11:11.150Z,100357.21
2023-03-17T19:13:39.285Z,100358.04
2023-03-17T19:16:11.417Z,100361.56
2023-03-17T19:18:42.780Z,100358.13
2023-03-17T19:21:11.469Z,100360.16
2023-03-17T19:23:43.856Z,100356.73
2023-03-17T19:26:12.056Z,100364.70
2023-03-17T19:28:40.300Z,100363.42
2023-03-17T19:31:09.574Z,100360.39
2023-03-17T19:33:37.885Z,100361.10
2023-03-17T19:36:12.127Z,100357.16
2023-03-17T19:38:42.837Z,100355.92
2023-03-17T19:41:11.532Z,100355.23
2023-03-17T19:43:41.804Z,100356.12
2023-03-17T19:46:11.523Z,100356.02
2023-03-17T19:48:42.411Z,100353.46
2023-03-17T19:51:10.499Z,100354.05
2023-03-17T19:53:45.835Z,100351.16
2023-03-17T19:56:14.110Z,100349.49
2023-03-17T19:58:42.298Z,100356.59
2023-03-17T20:01:10.961Z,100357.91
2023-03-17T20:03:42.559Z,100350.93
2023-03-17T20:06:13.209Z,100349.69
2023-03-17T20:08:43.224Z,100343.88
2023-03-17T20:11:12.073Z,100346.63
2023-03-17T20:13:41.184Z,100345.81
2023-03-17T20:16:09.634Z,100346.54
2023-03-17T20:18:38.152Z,100344.05
2023-03-17T20:21:13.152Z,100345.38
2023-03-17T20:23:42.505Z,100343.80
2023-03-17T20:26:10.878Z,100346.40
2023-03-17T20:28:39.616Z,100342.36
2023-03-17T20:31:08.316Z,100347.58
2023-03-17T20:33:44.698Z,100344.42
2023-03-17T20:36:14.155Z,100351.14
2023-03-17T20:38:43.951Z,100346.02
2023-03-17T20:41:14.895Z,100349.56
2023-03-17T20:43:43.636Z,100353.19
2023-03-17T20:46:23.089Z,100355.36
2023-03-17T20:48:58.580Z,100352.69
2023-03-17T20:51:31.039Z,100355.94
2023-03-17T20:54:00.965Z,100360.41
2023-03-17T20:56:30.057Z,100360.92
2023-03-17T20:59:05.173Z,100365.35
2023-03-17T21:01:35.719Z,100365.86
2023-03-17T21:04:11.916Z,100368.25
2023-03-17T21:06:42.233Z,100372.52
2023-03-17T21:09:10.907Z,100372.42
2023-03-17T21:11:39.105Z,100372.89
2023-03-17T21:14:08.519Z,100371.72
2023-03-17T21:16:37.268Z,100369.52
2023-03-17T21:19:13.778Z,100367.64
2023-03-17T21:21:43.203Z,100367.68
2023-03-17T21:24:25.896Z,100364.80
2023-03-17T21:26:54.876Z,100362.48
2023-03-17T21:29:23.563Z,100363.92
2023-03-17T21:31:57.164Z,100367.40
2023-03-17T21:34:25.643Z,100372.17
2023-03-17T21:36:54.290Z,100385.77
2023-03-17T21:39:22.612Z,100387.55
2023-03-17T21:41:51.415Z,100390.23
2023-03-17T21:44:20.507Z,100394.02
2023-03-17T21:46:49.402Z,100399.02
2023-03-17T21:49:18.871Z,100401.29
2023-03-17T21:51:47.608Z,100404.15
2023-03-17T21:54:16.081Z,100410.02
2023-03-17T21:56:49.894Z,100407.63
2023-03-17T21:59:18.613Z,100408.02
2023-03-17T22:01:46.975Z,100409.74
2023-03-17T22:04:15.688Z,100408.94
2023-03-17T22:06:44.047Z,100408.52
2023-03-17T22:09:13.100Z,100408.59
2023-03-17T22:11:42.140Z,100411.32
2023-03-17T22:14:12.200Z,100411.91
2023-03-17T22:16:42.815Z,100418.14
2023-03-17T22:19:11.223Z,100422.41
2023-03-17T22:21:39.591Z,100426.02
2023-03-17T22:24:10.315Z,100429.55
2023-03-17T22:26:38.578Z,100429.48
2023-03-17T22:29:07.168Z,100431.24
2023-03-17T22:31:35.761Z,100429.71
2023-03-17T22:34:04.448Z,100434.51
2023-03-17T22:36:33.573Z,100438.96
2023-03-17T22:39:01.930Z,100443.61
2023-03-17T22:41:30.751Z,100445.98
2023-03-17T22:43:59.006Z,100448.64
2023-03-17T22:46:27.433Z,100451.27
2023-03-17T22:48:57.038Z,100449.41
2023-03-17T22:51:26.771Z,100445.22
2023-03-17T22:53:55.505Z,100448.00
2023-03-17T22:56:25.227Z,100448.69
2023-03-17T22:58:53.810Z,100446.16
2023-03-17T23:01:23.669Z,100442.02
2023-03-17T23:03:53.020Z,100441.33
2023-03-17T23:06:21.442Z,100445.17
2023-03-17T23:08:51.648Z,100450.83
2023-03-17T23:11:23.225Z,100454.14
2023-03-17T23:13:53.528Z,100458.35
2023-03-17T23:16:22.388Z,100455.40
2023-03-17T23:18:51.605Z,100459.98
2023-03-17T23:21:31.159Z,100462.61
2023-03-17T23:24:00.423Z,100463.02
2023-03-17T23:26:29.255Z,100459.41
2023-03-17T23:28:58.034Z,100465.39
2023-03-17T23:31:32.369Z,100466.79
2023-03-17T23:34:00.542Z,100469.55
2023-03-17T23:36:28.701Z,100469.29
2023-03-17T23:38:57.145Z,100468.64
2023-03-17T23:41:26.202Z,100462.67
2023-03-17T23:43:54.381Z,100457.02
2023-03-17T23:46:22.587Z,100451.73
2023-03-17T23:48:50.875Z,100442.39
2023-03-17T23:51:19.112Z,100438.26
2023-03-17T23:53:48.249Z,100434.64
2023-03-17T23:56:21.345Z,100437.74
2023-03-17T23:58:50.822Z,100439.21
